Time;durP1;ratioP1;P1;durP2;ratioP2;P2;SDS_P1;SDS_P2;PMS_P1;PMS_P2;Temp;Humidity;BMP_temperature;BMP_pressure;BME280_temperature;BME280_humidity;BME280_pressure;Samples;Min_cycle;Max_cycle;Signal;HPM_P1;HPM_P2
2022/04/07 00:02:27;;;;;;;10.60;9.23;;;;;;;8.11;64.69;99632.30;1694233;83;21043;-70
2022/04/07 00:04:55;;;;;;;12.15;9.68;;;;;;;8.07;64.80;99629.37;1716207;81;21601;-69
2022/04/07 00:07:22;;;;;;;11.57;9.40;;;;;;;8.05;64.83;99632.02;1702310;83;21348;-69
2022/04/07 00:09:51;;;;;;;10.10;8.68;;;;;;;8.03;64.89;99638.94;1688185;82;21689;-69
2022/04/07 00:12:19;;;;;;;11.38;9.58;;;;;;;8.01;64.92;99633.07;1735101;81;21061;-69
2022/04/07 00:14:47;;;;;;;10.32;9.23;;;;;;;8.01;64.91;99632.28;1697173;81;21636;-69
2022/04/07 00:17:14;;;;;;;11.70;9.58;;;;;;;7.95;64.91;99630.13;1695384;83;21064;-70
2022/04/07 00:19:43;;;;;;;10.48;9.20;;;;;;;7.92;64.94;99624.00;1692475;82;21569;-71
2022/04/07 00:22:10;;;;;;;9.70;8.63;;;;;;;7.88;64.92;99625.05;1711192;83;21049;-70
2022/04/07 00:24:37;;;;;;;10.58;9.00;;;;;;;7.85;64.95;99622.13;1691275;83;21277;-70
2022/04/07 00:27:04;;;;;;;12.43;8.68;;;;;;;7.79;64.97;99623.16;1718710;83;21103;-71
2022/04/07 00:29:33;;;;;;;11.00;8.90;;;;;;;7.69;65.04;99623.39;1702169;82;21054;-70
2022/04/07 00:32:05;;;;;;;10.53;9.38;;;;;;;7.58;65.21;99619.11;1699226;82;21180;-71
2022/04/07 00:34:32;;;;;;;10.93;9.35;;;;;;;7.51;65.37;99619.35;1699644;82;21062;-70
2022/04/07 00:36:59;;;;;;;12.07;8.93;;;;;;;7.48;65.44;99631.03;1702052;82;21102;-71
2022/04/07 00:39:27;;;;;;;10.68;9.25;;;;;;;7.42;65.55;99625.41;1692488;82;21238;-70
2022/04/07 00:41:56;;;;;;;10.75;8.88;;;;;;;7.39;65.69;99623.27;1702275;82;21069;-70
2022/04/07 00:44:24;;;;;;;10.43;8.90;;;;;;;7.34;65.81;99632.53;1685996;84;21025;-70
2022/04/07 00:46:51;;;;;;;10.45;9.03;;;;;;;7.33;65.93;99633.06;1699490;82;21209;-70
2022/04/07 00:49:19;;;;;;;11.20;8.80;;;;;;;7.33;66.03;99622.98;1694864;82;21533;-70
2022/04/07 00:51:49;;;;;;;11.25;8.95;;;;;;;7.32;66.09;99630.15;1696457;82;21078;-70
2022/04/07 00:54:17;;;;;;;12.33;9.13;;;;;;;7.33;66.14;99620.32;1650594;84;21111;-70
2022/04/07 00:56:44;;;;;;;10.60;8.68;;;;;;;7.32;66.15;99614.74;1681299;82;21106;-69
2022/04/07 00:59:15;;;;;;;12.78;8.13;;;;;;;7.31;66.13;99616.61;1699460;83;21183;-69
2022/04/07 01:01:44;;;;;;;11.53;8.83;;;;;;;7.29;66.12;99613.40;1704649;83;21073;-69
2022/04/07 01:04:13;;;;;;;11.20;9.33;;;;;;;7.28;66.14;99613.13;1689746;83;21106;-69
2022/04/07 01:06:43;;;;;;;12.90;9.30;;;;;;;7.26;66.18;99603.28;1698965;83;21121;-69
2022/04/07 01:09:11;;;;;;;11.00;8.70;;;;;;;7.26;66.26;99605.41;1673298;83;21165;-69
2022/04/07 01:11:40;;;;;;;10.28;8.95;;;;;;;7.36;66.08;99605.19;1722035;82;21050;-68
2022/04/07 01:14:07;;;;;;;10.98;8.50;;;;;;;7.36;65.99;99603.87;1656685;84;21054;-70
2022/04/07 01:16:36;;;;;;;9.70;8.15;;;;;;;7.34;65.91;99598.00;1685460;82;21074;-70
2022/04/07 01:19:04;;;;;;;9.65;8.23;;;;;;;7.28;65.96;99597.20;1700920;82;21073;-70
2022/04/07 01:21:33;;;;;;;12.10;8.85;;;;;;;7.16;66.00;99600.05;1698877;82;21098;-70
2022/04/07 01:24:09;;;;;;;11.53;8.43;;;;;;;7.03;66.15;99603.16;1698919;83;21045;-70
2022/04/07 01:26:44;;;;;;;9.45;8.35;;;;;;;6.99;66.23;99595.45;1680122;83;21063;-70
2022/04/07 01:29:19;;;;;;;10.88;8.55;;;;;;;6.97;66.30;99597.55;1718907;81;21209;-69
2022/04/07 01:31:46;;;;;;;10.68;8.20;;;;;;;6.93;66.34;99598.59;1709647;81;21620;-69
2022/04/07 01:34:14;;;;;;;10.75;8.70;;;;;;;6.89;66.38;99604.67;1721576;83;21097;-69
2022/04/07 01:36:44;;;;;;;10.80;9.00;;;;;;;6.85;66.42;99608.91;1702210;82;21086;-69
2022/04/07 01:39:13;;;;;;;11.12;8.75;;;;;;;6.80;66.44;99603.81;1700241;82;21128;-69
2022/04/07 01:41:43;;;;;;;11.25;8.90;;;;;;;6.76;66.47;99600.08;1681913;84;21244;-69
2022/04/07 01:44:10;;;;;;;10.75;8.30;;;;;;;6.75;66.53;99600.34;1715869;83;21404;-69
2022/04/07 01:46:39;;;;;;;11.33;8.78;;;;;;;6.72;66.58;99607.48;1683333;83;21046;-69
2022/04/07 01:49:06;;;;;;;10.68;9.05;;;;;;;6.71;66.60;99605.36;1693495;83;22597;-69
2022/04/07 01:51:35;;;;;;;11.05;8.95;;;;;;;6.70;66.63;99599.76;1709800;83;21093;-69
2022/04/07 01:54:02;;;;;;;11.40;8.93;;;;;;;6.69;66.66;99599.50;1694785;82;21165;-69
2022/04/07 01:56:31;;;;;;;10.60;8.83;;;;;;;6.70;66.65;99602.95;1697361;82;21039;-68
2022/04/07 01:58:58;;;;;;;11.05;9.05;;;;;;;6.68;66.61;99601.89;1698296;83;21093;-70
2022/04/07 02:01:26;;;;;;;11.40;8.83;;;;;;;6.68;66.57;99601.89;1685995;83;21067;-70
2022/04/07 02:03:53;;;;;;;11.00;8.23;;;;;;;6.64;66.53;99600.77;1719850;83;21042;-70
2022/04/07 02:06:25;;;;;;;11.55;8.95;;;;;;;6.63;66.54;99591.75;1684572;83;21177;-70
2022/04/07 02:08:51;;;;;;;11.03;8.60;;;;;;;6.62;66.60;99589.63;1702320;82;21526;-70
2022/04/07 02:11:18;;;;;;;11.95;8.85;;;;;;;6.62;66.62;99586.98;1676000;84;21053;-71
2022/04/07 02:13:45;;;;;;;10.72;8.53;;;;;;;6.63;66.56;99585.12;1692963;83;21074;-70
2022/04/07 02:16:14;;;;;;;14.43;9.28;;;;;;;6.61;66.55;99588.55;1698598;83;21085;-69
2022/04/07 02:18:42;;;;;;;11.63;8.13;;;;;;;6.57;66.50;99591.70;1689768;83;21309;-70
2022/04/07 02:21:09;;;;;;;12.33;8.88;;;;;;;6.55;66.47;99581.09;1679203;84;21066;-69
2022/04/07 02:23:43;;;;;;;10.53;8.33;;;;;;;6.54;66.51;99586.11;1688339;84;21121;-70
2022/04/07 02:26:16;;;;;;;10.65;8.28;;;;;;;6.50;66.56;99588.47;1699804;83;21145;-70
2022/04/07 02:28:43;;;;;;;;;;;;;;;6.49;66.61;99590.06;1726418;83;21058;-70
2022/04/07 02:31:11;;;;;;;11.30;8.60;;;;;;;6.48;66.64;99585.79;1694643;83;21094;-70
2022/04/07 02:33:38;;;;;;;10.82;8.40;;;;;;;6.46;66.66;99582.08;1693395;84;21533;-70
2022/04/07 02:36:08;;;;;;;12.75;8.70;;;;;;;6.45;66.71;99579.66;1693351;84;20983;-70
2022/04/07 02:38:37;;;;;;;11.63;8.08;;;;;;;6.44;66.70;99584.70;1700417;82;20995;-70
2022/04/07 02:41:06;;;;;;;13.30;8.80;;;;;;;6.45;66.67;99592.42;1692771;82;21003;-69
2022/04/07 02:43:33;;;;;;;11.25;8.58;;;;;;;6.45;66.65;99584.97;1682637;82;21170;-70
2022/04/07 02:46:01;;;;;;;12.47;9.10;;;;;;;6.46;66.63;99583.94;1693638;83;21002;-69
2022/04/07 02:48:29;;;;;;;11.35;8.83;;;;;;;6.47;66.72;99584.20;1684882;82;21073;-69
2022/04/07 02:50:57;;;;;;;11.22;8.45;;;;;;;6.48;66.80;99579.98;1697825;84;21038;-70
2022/04/07 02:53:25;;;;;;;11.73;8.40;;;;;;;6.49;66.78;99583.43;1701963;82;21107;-70
2022/04/07 02:55:52;;;;;;;11.73;8.78;;;;;;;6.41;66.73;99582.55;1701354;84;21138;-70
2022/04/07 02:58:20;;;;;;;10.82;8.30;;;;;;;6.38;66.76;99585.71;1681829;84;21631;-70
2022/04/07 03:00:48;;;;;;;11.75;8.98;;;;;;;6.36;66.78;99589.16;1686259;82;21015;-69
2022/04/07 03:03:15;;;;;;;12.40;9.08;;;;;;;6.34;66.80;99582.77;1689815;82;21035;-70
2022/04/07 03:05:43;;;;;;;11.70;9.03;;;;;;;6.36;66.85;99587.83;1697595;82;21089;-69
2022/04/07 03:08:12;;;;;;;12.10;8.25;;;;;;;6.37;66.88;99585.45;1701719;83;22224;-69
2022/04/07 03:10:42;;;;;;;11.95;9.08;;;;;;;6.35;66.82;99585.71;1700711;83;21028;-70
2022/04/07 03:13:10;;;;;;;11.08;8.48;;;;;;;6.32;66.76;99585.69;1691162;82;21031;-68
2022/04/07 03:15:38;;;;;;;11.28;8.73;;;;;;;6.29;66.80;99582.74;1689910;82;21506;-68
2022/04/07 03:18:06;;;;;;;12.25;8.30;;;;;;;6.24;66.90;99586.12;1689339;82;21070;-69
2022/04/07 03:20:33;;;;;;;14.18;9.33;;;;;;;6.20;66.92;99591.67;1688477;82;21151;-69
2022/04/07 03:23:02;;;;;;;11.48;8.75;;;;;;;6.17;66.89;99590.05;1701905;82;21085;-69
2022/04/07 03:25:29;;;;;;;13.22;9.45;;;;;;;6.13;67.00;99579.15;1702429;82;21069;-69
2022/04/07 03:27:58;;;;;;;12.93;8.85;;;;;;;6.08;67.14;99581.20;1698402;82;21032;-68
2022/04/07 03:30:25;;;;;;;13.60;9.63;;;;;;;6.09;67.27;99578.05;1695157;82;21066;-68
2022/04/07 03:32:53;;;;;;;13.20;9.03;;;;;;;6.09;67.36;99582.83;1700593;83;21640;-68
2022/04/07 03:35:21;;;;;;;12.30;9.13;;;;;;;6.13;67.42;99581.00;1693739;83;21039;-69
2022/04/07 03:37:49;;;;;;;12.75;9.98;;;;;;;6.15;67.37;99576.23;1704559;83;21114;-69
2022/04/07 03:40:18;;;;;;;14.35;9.43;;;;;;;6.16;67.27;99574.67;1701894;82;21502;-70
2022/04/07 03:42:45;;;;;;;13.30;9.50;;;;;;;6.16;67.27;99575.20;1689233;82;21125;-70
2022/04/07 03:45:13;;;;;;;12.15;9.25;;;;;;;6.16;67.27;99579.97;1687278;84;21856;-70
2022/04/07 03:47:40;;;;;;;12.03;9.00;;;;;;;6.19;67.31;99581.33;1694348;82;21665;-69
2022/04/07 03:50:08;;;;;;;13.35;9.58;;;;;;;6.21;67.31;99576.02;1698004;83;20971;-70
2022/04/07 03:52:36;;;;;;;12.05;9.30;;;;;;;6.24;67.34;99575.52;1705067;83;21011;-71
2022/04/07 03:55:05;;;;;;;12.05;9.30;;;;;;;6.27;67.34;99584.30;1693834;83;21061;-70
2022/04/07 03:57:33;;;;;;;12.15;9.48;;;;;;;6.31;67.33;99585.92;1678999;84;21548;-70
2022/04/07 04:00:00;;;;;;;11.80;9.35;;;;;;;6.34;67.31;99578.26;1694151;82;21031;-70
2022/04/07 04:02:27;;;;;;;14.68;9.53;;;;;;;6.41;67.35;99581.23;1692189;82;21074;-70
2022/04/07 04:04:54;;;;;;;12.40;9.08;;;;;;;6.49;67.35;99575.47;1690630;82;20980;-69
2022/04/07 04:07:21;;;;;;;11.97;8.55;;;;;;;6.55;67.31;99577.91;1697671;83;20999;-68
2022/04/07 04:09:50;;;;;;;10.45;8.88;;;;;;;6.63;67.32;99576.63;1698165;82;21113;-69
2022/04/07 04:12:17;;;;;;;12.78;9.23;;;;;;;6.74;67.33;99581.47;1691375;82;21507;-69
2022/04/07 04:14:45;;;;;;;11.45;8.25;;;;;;;6.85;67.27;99578.38;1681452;82;21042;-69
2022/04/07 04:17:12;;;;;;;11.33;8.70;;;;;;;6.92;67.14;99578.41;1698728;82;21106;-69
2022/04/07 04:19:39;;;;;;;12.37;8.50;;;;;;;7.01;67.06;99576.88;1686790;84;21420;-69
2022/04/07 04:22:06;;;;;;;11.33;8.63;;;;;;;7.13;67.03;99577.98;1698683;82;21208;-69
2022/04/07 04:24:34;;;;;;;12.07;8.95;;;;;;;7.25;66.96;99583.90;1703104;82;21117;-69
2022/04/07 04:27:01;;;;;;;11.15;8.53;;;;;;;7.38;66.89;99581.30;1702391;82;21053;-68
2022/04/07 04:29:29;;;;;;;11.25;8.80;;;;;;;7.54;66.72;99580.84;1701351;82;21054;-69
2022/04/07 04:31:56;;;;;;;11.57;8.55;;;;;;;7.69;66.46;99584.85;1703712;82;21509;-69
2022/04/07 04:34:24;;;;;;;13.05;9.45;;;;;;;7.85;66.13;99588.89;1703793;82;21158;-69
2022/04/07 04:36:52;;;;;;;13.48;8.83;;;;;;;7.97;65.86;99583.61;1695046;82;21071;-69
2022/04/07 04:39:19;;;;;;;12.13;8.90;;;;;;;8.11;65.65;99589.20;1710273;83;21015;-68
2022/04/07 04:41:47;;;;;;;11.68;8.58;;;;;;;8.22;65.44;99582.03;1682568;84;21028;-69
2022/04/07 04:44:14;;;;;;;13.25;8.45;;;;;;;8.34;65.29;99578.59;1691697;83;21071;-68
2022/04/07 04:46:43;;;;;;;13.40;8.90;;;;;;;8.45;65.03;99582.06;1710495;83;21543;-68
2022/04/07 04:49:10;;;;;;;11.75;9.10;;;;;;;8.57;64.91;99580.48;1690388;84;21113;-69
2022/04/07 04:51:38;;;;;;;11.63;8.58;;;;;;;8.68;64.69;99579.39;1677001;84;21514;-69
2022/04/07 04:54:06;;;;;;;12.05;8.95;;;;;;;8.79;64.42;99578.33;1691105;82;21031;-69
2022/04/07 04:56:34;;;;;;;12.35;8.90;;;;;;;8.91;64.10;99578.81;1693202;82;21209;-69
2022/04/07 04:59:02;;;;;;;11.73;9.03;;;;;;;9.01;63.78;99587.32;1688610;82;21250;-69
2022/04/07 05:01:30;;;;;;;11.85;9.35;;;;;;;9.12;63.63;99594.23;1698245;84;21050;-68
2022/04/07 05:04:00;;;;;;;13.40;9.08;;;;;;;9.22;63.50;99586.75;1702568;82;21067;-69
2022/04/07 05:06:28;;;;;;;10.13;8.78;;;;;;;9.34;63.10;99583.77;1708387;83;21438;-69
2022/04/07 05:08:55;;;;;;;11.00;7.72;;;;;;;9.47;62.70;99596.50;1688931;83;21024;-69
2022/04/07 05:11:23;;;;;;;9.45;7.78;;;;;;;9.59;62.38;99586.33;1702064;83;21203;-69
2022/04/07 05:13:52;;;;;;;9.65;7.78;;;;;;;9.72;61.77;99588.14;1693736;82;21591;-69
2022/04/07 05:16:19;;;;;;;12.25;8.45;;;;;;;9.81;61.31;99586.50;1700252;82;20972;-69
2022/04/07 05:18:48;;;;;;;11.88;8.40;;;;;;;9.90;60.71;99580.03;1679303;84;21650;-69
2022/04/07 05:21:16;;;;;;;12.20;8.38;;;;;;;9.97;60.39;99573.84;1689522;82;21737;-68
2022/04/07 05:23:43;;;;;;;11.83;8.68;;;;;;;10.06;60.00;99566.86;1685852;82;21891;-68
2022/04/07 05:26:12;;;;;;;12.07;8.53;;;;;;;10.16;59.69;99563.32;1707657;83;21007;-68
2022/04/07 05:28:40;;;;;;;11.12;7.92;;;;;;;10.28;59.33;99565.14;1679009;83;21142;-69
2022/04/07 05:31:08;;;;;;;13.83;8.70;;;;;;;10.41;59.00;99559.16;1701547;83;21053;-69
2022/04/07 05:33:39;;;;;;;11.05;8.13;;;;;;;10.52;58.69;99559.31;1693873;83;21055;-69
2022/04/07 05:36:07;;;;;;;10.60;8.33;;;;;;;10.63;58.33;99557.38;1695331;82;21216;-69
2022/04/07 05:38:36;;;;;;;9.98;7.72;;;;;;;10.77;58.11;99564.17;1696860;82;21024;-70
2022/04/07 05:41:05;;;;;;;9.88;7.83;;;;;;;10.89;57.90;99564.59;1699361;82;21114;-69
2022/04/07 05:43:32;;;;;;;10.28;8.28;;;;;;;11.03;57.68;99570.06;1689552;83;21063;-69
2022/04/07 05:46:01;;;;;;;9.98;8.50;;;;;;;11.16;57.41;99560.56;1687912;83;21053;-69
2022/04/07 05:48:28;;;;;;;10.70;8.33;;;;;;;11.30;57.08;99560.13;1688815;82;21922;-70
2022/04/07 05:50:56;;;;;;;10.88;8.13;;;;;;;11.42;56.66;99561.85;1681953;84;21053;-67
2022/04/07 05:53:23;;;;;;;11.22;8.15;;;;;;;11.55;56.35;99563.03;1698224;82;22362;-69
2022/04/07 05:55:50;;;;;;;12.53;8.48;;;;;;;11.68;56.03;99560.16;1687279;82;21062;-68
2022/04/07 05:58:19;;;;;;;11.73;8.25;;;;;;;11.80;55.78;99555.19;1708100;83;21002;-69
2022/04/07 06:00:46;;;;;;;10.65;8.45;;;;;;;11.92;55.55;99555.58;1683810;83;21216;-68
2022/04/07 06:03:15;;;;;;;10.82;7.92;;;;;;;12.07;55.01;99555.09;1680076;83;21055;-69
2022/04/07 06:05:42;;;;;;;12.13;8.33;;;;;;;12.19;54.56;99556.78;1703594;83;21046;-68
2022/04/07 06:08:11;;;;;;;10.18;8.38;;;;;;;12.26;54.11;99559.88;1708384;83;21216;-68
2022/04/07 06:10:38;;;;;;;11.12;8.70;;;;;;;12.36;53.83;99557.58;1681811;83;21081;-67
2022/04/07 06:13:09;;;;;;;12.15;8.63;;;;;;;12.43;53.61;99562.80;1716576;83;21604;-69
2022/04/07 06:15:36;;;;;;;12.50;8.57;;;;;;;12.53;53.58;99555.69;1696556;83;21109;-68
2022/04/07 06:18:05;;;;;;;9.13;7.57;;;;;;;12.65;53.50;99550.12;1685326;82;21332;-68
2022/04/07 06:20:34;;;;;;;10.77;8.70;;;;;;;12.78;53.14;99548.55;1691807;82;21564;-68
2022/04/07 06:23:03;;;;;;;10.47;8.33;;;;;;;12.91;52.73;99545.09;1688709;82;21283;-68
2022/04/07 06:25:31;;;;;;;9.80;7.97;;;;;;;13.03;52.73;99547.30;1702446;82;21316;-68
2022/04/07 06:28:02;;;;;;;11.20;8.77;;;;;;;13.16;52.66;99545.68;1704156;82;21049;-68
2022/04/07 06:30:28;;;;;;;11.17;8.87;;;;;;;13.30;52.48;99546.52;1692869;82;21450;-68
2022/04/07 06:32:57;;;;;;;10.63;8.97;;;;;;;13.41;51.99;99532.34;1706553;83;21238;-69
2022/04/07 06:35:24;;;;;;;12.00;8.60;;;;;;;13.54;51.81;99533.41;1683020;83;21214;-69
2022/04/07 06:37:58;;;;;;;11.43;8.40;;;;;;;13.65;51.62;99537.45;1691269;82;21297;-69
2022/04/07 06:40:29;;;;;;;11.60;8.47;;;;;;;13.76;51.39;99532.67;1690290;83;21071;-69
2022/04/07 06:42:58;;;;;;;11.47;8.43;;;;;;;13.88;51.13;99536.94;1686817;83;21255;-70
2022/04/07 06:45:28;;;;;;;11.53;8.50;;;;;;;13.98;50.33;99541.28;1700343;82;21885;-69
2022/04/07 06:47:55;;;;;;;9.87;7.40;;;;;;;14.06;50.40;99531.17;1721883;82;21261;-69
2022/04/07 06:50:26;;;;;;;9.57;7.30;;;;;;;14.18;50.27;99525.23;1698636;82;21297;-70
2022/04/07 06:52:54;;;;;;;10.00;7.90;;;;;;;14.28;49.37;99529.83;1687330;84;21219;-69
2022/04/07 06:55:21;;;;;;;10.37;7.40;;;;;;;14.37;49.47;99526.39;1657387;84;21300;-69
2022/04/07 06:58:02;;;;;;;9.97;7.73;;;;;;;14.46;49.17;99527.23;1688469;83;21226;-69
2022/04/07 07:00:32;;;;;;;10.78;7.92;;;;;;;14.52;48.82;99530.86;1724638;83;21196;-70
2022/04/07 07:03:03;;;;;;;11.03;8.20;;;;;;;14.62;48.51;99525.77;1698207;82;21090;-70
2022/04/07 07:05:34;;;;;;;11.83;8.23;;;;;;;14.69;48.44;99532.84;1680229;84;21008;-69
2022/04/07 07:08:21;;;;;;;10.40;8.13;;;;;;;14.78;48.30;99530.98;1702388;82;21455;-68
2022/04/07 07:10:50;;;;;;;9.60;7.90;;;;;;;14.86;48.13;99523.27;1702510;81;21322;-70
2022/04/07 07:13:21;;;;;;;11.10;8.70;;;;;;;14.97;48.03;99525.91;1691349;84;21381;-70
2022/04/07 07:15:48;;;;;;;11.00;7.87;;;;;;;15.07;47.98;99522.95;1699243;81;21206;-70
2022/04/07 07:18:16;;;;;;;9.63;7.90;;;;;;;15.19;47.93;99515.06;1704334;82;21325;-70
2022/04/07 07:20:43;;;;;;;9.80;7.80;;;;;;;15.34;47.93;99507.11;1704304;83;21406;-70
2022/04/07 07:23:10;;;;;;;12.70;8.63;;;;;;;15.66;48.23;99500.53;1702713;82;21454;-70
2022/04/07 07:25:38;;;;;;;11.43;8.90;;;;;;;15.80;47.45;99497.68;1686601;84;21430;-71
2022/04/07 07:28:09;;;;;;;11.47;8.30;;;;;;;15.91;46.69;99496.80;1694606;82;39159;-71
2022/04/07 07:30:36;;;;;;;11.20;8.20;;;;;;;15.91;46.69;99496.80;1688774;82;22065;-71
2022/04/07 07:33:03;;;;;;;9.63;7.83;;;;;;;15.98;46.91;99497.09;1695375;83;21564;-70
2022/04/07 07:35:30;;;;;;;12.50;7.93;;;;;;;16.07;46.57;99497.89;1687361;82;22040;-68
2022/04/07 07:38:00;;;;;;;9.67;7.50;;;;;;;16.18;46.77;99491.05;1706665;81;21965;-70
2022/04/07 07:40:29;;;;;;;9.67;7.97;;;;;;;16.32;46.53;99499.49;1694709;83;21496;-70
2022/04/07 07:42:57;;;;;;;10.00;7.03;;;;;;;16.54;46.08;99493.09;1715645;83;21795;-69
2022/04/07 07:45:24;;;;;;;11.73;7.40;;;;;;;16.68;46.14;99488.84;1679453;83;21716;-70
2022/04/07 07:47:55;;;;;;;10.07;7.70;;;;;;;16.68;46.14;99488.84;1678630;83;21572;-70
2022/04/07 07:50:23;;;;;;;;;;;;;;;16.78;45.85;99482.58;1679778;84;21774;-71
2022/04/07 07:52:51;;;;;;;11.43;7.63;;;;;;;16.86;45.66;99479.60;1704294;82;21162;-71
2022/04/07 07:55:18;;;;;;;9.33;7.40;;;;;;;16.94;45.25;99485.50;1676060;84;21747;-71
2022/04/07 07:57:46;;;;;;;8.83;7.07;;;;;;;17.00;45.23;99476.10;1689717;82;21745;-71
2022/04/07 08:00:16;;;;;;;9.17;6.50;;;;;;;17.11;45.14;99476.55;1692380;82;22309;-71
2022/04/07 08:02:44;;;;;;;11.60;7.07;;;;;;;17.19;44.51;99474.89;1681821;82;21732;-70
2022/04/07 08:05:13;;;;;;;10.07;7.43;;;;;;;17.24;44.64;99475.50;1675787;84;21762;-70
2022/04/07 08:07:42;;;;;;;13.63;7.40;;;;;;;17.29;44.52;99460.45;1681810;83;21722;-70
2022/04/07 08:10:10;;;;;;;8.87;7.23;;;;;;;17.43;44.22;99460.19;1690908;84;21752;-70
2022/04/07 08:12:39;;;;;;;9.70;7.33;;;;;;;17.43;44.22;99460.19;1691858;82;21020;-71
2022/04/07 08:15:09;;;;;;;7.93;6.53;;;;;;;17.51;44.23;99451.81;1690489;83;21063;-71
2022/04/07 08:17:37;;;;;;;9.33;6.80;;;;;;;17.62;43.88;99445.44;1695186;82;21141;-71
2022/04/07 08:20:11;;;;;;;9.33;6.97;;;;;;;17.69;43.76;99440.30;1703293;82;20975;-70
2022/04/07 08:22:35;;;;;;;8.30;6.40;;;;;;;17.78;43.64;99443.17;1703452;82;21784;-71
2022/04/07 08:25:03;;;;;;;11.20;6.97;;;;;;;17.89;43.09;99434.66;1702878;82;21134;-70
2022/04/07 08:27:31;;;;;;;10.17;7.07;;;;;;;17.95;43.27;99435.46;1704049;82;21000;-70
2022/04/07 08:29:59;;;;;;;7.93;6.67;;;;;;;18.06;43.23;99435.82;1704307;82;22092;-72
2022/04/07 08:32:26;;;;;;;10.60;7.30;;;;;;;18.20;42.82;99430.91;1704283;82;21054;-70
2022/04/07 08:34:53;;;;;;;8.73;6.90;;;;;;;18.30;42.36;99424.29;1698513;82;21553;-70
2022/04/07 08:37:21;;;;;;;10.23;7.30;;;;;;;18.40;42.45;99422.49;1701947;82;21003;-70
2022/04/07 08:39:49;;;;;;;9.57;6.50;;;;;;;18.53;42.24;99422.52;1690419;84;21672;-69
2022/04/07 08:42:20;;;;;;;9.90;7.27;;;;;;;18.61;41.98;99418.89;1665742;84;21579;-70
2022/04/07 08:44:49;;;;;;;8.33;5.93;;;;;;;18.71;41.62;99410.33;1690519;82;20959;-70
2022/04/07 08:47:18;;;;;;;7.77;5.50;;;;;;;18.84;41.27;99408.43;1690506;82;21415;-71
2022/04/07 08:49:45;;;;;;;8.30;5.73;;;;;;;18.93;40.94;99398.28;1686328;84;21615;-71
2022/04/07 08:52:12;;;;;;;10.23;6.00;;;;;;;19.01;40.77;99403.33;1687938;82;21067;-71
2022/04/07 08:54:39;;;;;;;9.83;6.00;;;;;;;19.09;40.60;99398.36;1690516;82;21142;-71
2022/04/07 08:57:08;;;;;;;7.17;5.27;;;;;;;19.19;40.46;99387.84;1694214;82;21177;-70
2022/04/07 08:59:36;;;;;;;7.50;5.17;;;;;;;19.33;40.06;99392.08;1689630;82;21098;-69
2022/04/07 09:02:04;;;;;;;7.13;5.27;;;;;;;19.44;39.57;99385.82;1690122;83;21015;-70
2022/04/07 09:04:38;;;;;;;8.17;5.33;;;;;;;19.56;39.23;99383.64;1706107;82;21054;-70
2022/04/07 09:07:06;;;;;;;9.70;5.07;;;;;;;19.65;38.84;99376.75;1693681;83;21190;-70
2022/04/07 09:09:38;;;;;;;7.70;5.20;;;;;;;19.73;38.71;99382.57;1692890;82;21094;-71
2022/04/07 09:12:06;;;;;;;7.03;5.30;;;;;;;19.83;38.69;99373.93;1676211;84;21144;-70
2022/04/07 09:14:35;;;;;;;10.57;5.67;;;;;;;19.92;38.40;99376.48;1656799;85;21032;-70
2022/04/07 09:17:05;;;;;;;8.10;5.83;;;;;;;19.99;38.28;99373.17;1687746;82;21059;-70
2022/04/07 09:19:34;;;;;;;8.63;5.30;;;;;;;20.04;38.09;99362.87;1688971;82;21755;-70
2022/04/07 09:22:10;;;;;;;8.63;5.70;;;;;;;20.07;38.16;99359.46;1696626;82;21042;-70
2022/04/07 09:24:38;;;;;;;13.53;5.53;;;;;;;20.14;38.03;99352.85;1690533;82;21011;-70
2022/04/07 09:27:06;;;;;;;12.23;6.37;;;;;;;20.23;37.96;99350.52;1702760;82;21066;-70
2022/04/07 09:29:39;;;;;;;8.40;5.60;;;;;;;20.29;37.68;99349.12;1702779;82;21087;-70
2022/04/07 09:32:25;;;;;;;8.70;5.80;;;;;;;20.32;37.53;99341.06;1724288;83;21155;-70
2022/04/07 09:34:59;;;;;;;7.50;5.60;;;;;;;20.35;37.60;99340.36;1696540;83;21082;-69
2022/04/07 09:37:29;;;;;;;9.07;5.83;;;;;;;20.40;37.73;99336.61;1698198;83;21191;-69
2022/04/07 09:40:13;;;;;;;10.23;6.13;;;;;;;20.46;37.39;99331.69;1675979;84;21070;-70
2022/04/07 09:42:39;;;;;;;14.00;6.47;;;;;;;20.46;37.30;99325.69;1676718;84;21329;-71
2022/04/07 09:45:10;;;;;;;12.13;6.40;;;;;;;20.48;36.95;99322.64;1678923;84;21907;-71
2022/04/07 09:47:43;;;;;;;10.77;6.33;;;;;;;20.51;36.95;99316.53;1689739;82;21019;-71
2022/04/07 09:50:31;;;;;;;9.40;6.30;;;;;;;20.57;36.34;99313.77;1693795;82;21385;-70
2022/04/07 09:53:03;;;;;;;8.90;6.17;;;;;;;20.61;36.27;99313.27;1687807;82;21747;-69
2022/04/07 09:55:44;;;;;;;9.30;5.70;;;;;;;20.67;36.26;99309.14;1685504;83;21028;-72
2022/04/07 09:58:11;;;;;;;9.60;6.07;;;;;;;20.74;36.34;99313.36;1695324;84;21128;-71
2022/04/07 10:00:39;;;;;;;9.00;5.77;;;;;;;20.79;36.31;99298.14;1673817;83;21086;-70
2022/04/07 10:03:06;;;;;;;9.07;6.20;;;;;;;20.87;36.02;99297.73;1698769;83;21081;-71
2022/04/07 10:05:33;;;;;;;6.63;5.63;;;;;;;20.95;35.89;99295.37;1706012;83;21034;-71
2022/04/07 10:08:02;;;;;;;7.93;6.00;;;;;;;21.01;35.68;99289.09;1694014;82;21585;-69
2022/04/07 10:10:30;;;;;;;9.33;5.90;;;;;;;21.04;35.08;99282.95;1702994;82;21161;-70
2022/04/07 10:12:59;;;;;;;8.50;5.77;;;;;;;21.06;34.55;99286.10;1704386;82;20952;-70
2022/04/07 10:15:27;;;;;;;7.80;5.37;;;;;;;21.07;34.15;99270.80;1699281;82;21087;-70
2022/04/07 10:17:55;;;;;;;7.80;5.40;;;;;;;21.08;33.84;99270.22;1690604;82;21526;-69
2022/04/07 10:20:21;;;;;;;9.57;5.77;;;;;;;;;;1691222;84;21082;-71
2022/04/07 10:23:05;;;;;;;6.67;5.33;;;;;;;21.13;33.22;99268.59;1682508;82;21000;-70
2022/04/07 10:25:33;;;;;;;7.33;5.60;;;;;;;21.06;33.05;99259.73;1699769;83;21027;-70
2022/04/07 10:28:05;;;;;;;9.73;5.77;;;;;;;21.06;33.32;99253.52;1686490;83;21086;-70
2022/04/07 10:30:32;;;;;;;6.65;4.80;;;;;;;21.09;33.31;99258.20;1695808;84;20986;-71
2022/04/07 10:33:00;;;;;;;5.83;4.73;;;;;;;;;;1670113;84;20975;-70
2022/04/07 10:35:37;;;;;;;7.73;4.73;;;;;;;21.19;32.58;99241.36;1692834;82;21151;-69
2022/04/07 10:38:07;;;;;;;7.13;5.00;;;;;;;21.28;32.88;99235.09;1693662;82;21109;-70
2022/04/07 10:40:49;;;;;;;6.97;5.83;;;;;;;21.41;33.16;99228.17;1680866;84;21431;-70
2022/04/07 10:43:25;;;;;;;8.50;5.47;;;;;;;21.50;32.16;99226.01;1674891;84;21549;-71
2022/04/07 10:46:08;;;;;;;8.00;5.20;;;;;;;21.56;32.16;99217.77;1690764;84;21608;-71
2022/04/07 10:48:37;;;;;;;7.67;4.90;;;;;;;21.64;32.03;99211.87;1703756;84;21282;-71
2022/04/07 10:51:10;;;;;;;5.97;4.50;;;;;;;21.69;31.44;99208.86;1687855;83;21090;-70
2022/04/07 10:53:55;;;;;;;9.10;5.07;;;;;;;21.73;31.37;99203.67;1673985;84;21443;-71
2022/04/07 10:56:34;;;;;;;8.03;5.10;;;;;;;21.82;31.16;99202.66;1695603;84;20967;-70
2022/04/07 10:59:23;;;;;;;7.17;4.73;;;;;;;21.88;30.74;99197.90;1667556;84;21580;-72
2022/04/07 11:02:12;;;;;;;6.90;5.03;;;;;;;21.91;30.43;99192.28;1695487;83;21042;-70
2022/04/07 11:05:01;;;;;;;7.43;4.60;;;;;;;21.92;30.76;99193.29;1656874;85;21015;-71
2022/04/07 11:07:51;;;;;;;7.27;4.57;;;;;;;21.96;30.15;99186.55;1699434;83;21545;-70
2022/04/07 11:10:48;;;;;;;8.25;4.50;;;;;;;21.99;30.03;99189.89;1688713;83;21146;-70
2022/04/07 11:13:14;;;;;;;8.37;4.63;;;;;;;21.96;29.39;99190.63;1681047;84;21098;-68
2022/04/07 11:15:55;;;;;;;5.47;4.53;;;;;;;21.89;29.09;99187.80;1675976;84;22177;-71
2022/04/07 11:19:03;;;;;;;6.53;4.33;;;;;;;21.88;29.48;99192.46;1676023;84;21054;-71
2022/04/07 11:21:52;;;;;;;5.70;4.20;;;;;;;21.96;29.41;99177.03;1689932;84;21043;-70
2022/04/07 11:24:23;;;;;;;7.40;4.53;;;;;;;22.02;29.37;99182.36;1697405;83;21046;-70
2022/04/07 11:26:53;;;;;;;6.58;4.50;;;;;;;22.06;29.42;99175.03;1677758;83;20959;-71
2022/04/07 11:29:33;;;;;;;5.83;4.60;;;;;;;22.11;28.95;99176.09;1670579;84;21830;-70
2022/04/07 11:32:10;;;;;;;6.50;4.30;;;;;;;22.11;28.78;99174.73;1691554;83;20976;-71
2022/04/07 11:38:49;;;;;;;6.50;4.40;;;;;;;22.19;28.83;99166.88;1685513;82;21075;-71
2022/04/07 11:41:17;;;;;;;5.47;4.23;;;;;;;22.28;28.68;99152.21;1684504;82;21034;-71
2022/04/07 11:43:50;;;;;;;7.87;4.67;;;;;;;22.31;28.69;99153.64;1704335;82;21254;-71
2022/04/07 11:46:30;;;;;;;6.25;4.53;;;;;;;22.35;28.79;99157.19;1704243;82;21070;-69
2022/04/07 11:49:00;;;;;;;5.97;4.35;;;;;;;22.40;29.08;99158.20;1706039;82;20980;-70
2022/04/07 11:51:28;;;;;;;6.97;4.70;;;;;;;22.49;28.65;99148.41;1706493;82;21059;-71